Time;durP1;ratioP1;P1;durP2;ratioP2;P2;SDS_P1;SDS_P2;PMS_P1;PMS_P2;Temp;Humidity;BMP_temperature;BMP_pressure;BME280_temperature;BME280_humidity;BME280_pressure;Samples;Min_cycle;Max_cycle;Signal;HPM_P1;HPM_P2
2023/05/25 00:00:20;;;;;;;9.23;4.57;;;;;;;16.94;93.16;64745.91;5053260;28;20320;-60
2023/05/25 00:02:46;;;;;;;5.18;4.18;;;;;;;17.00;93.96;64757.06;5052833;28;20228;-56
2023/05/25 00:05:12;;;;;;;5.43;4.50;;;;;;;17.06;93.65;64761.13;5052965;28;20579;-56
2023/05/25 00:07:38;;;;;;;5.50;4.45;;;;;;;17.04;93.47;64756.94;5053147;28;20190;-57
2023/05/25 00:10:07;;;;;;;8.55;5.10;;;;;;;16.98;92.61;64752.31;5053112;28;20270;-58
2023/05/25 00:12:33;;;;;;;6.20;4.90;;;;;;;16.94;94.00;64751.00;5052793;28;20194;-56
2023/05/25 00:14:59;;;;;;;8.07;5.00;;;;;;;17.01;93.59;64756.16;5053060;28;20703;-60
2023/05/25 00:17:30;;;;;;;7.90;4.53;;;;;;;16.98;94.74;64752.31;5053050;28;20208;-60
2023/05/25 00:19:56;;;;;;;7.75;5.50;;;;;;;16.94;94.13;64747.91;5052221;28;20682;-61
2023/05/25 00:22:22;;;;;;;10.85;4.97;;;;;;;16.78;94.26;64733.94;5034912;28;20553;-60
2023/05/25 00:24:48;;;;;;;10.95;7.93;;;;;;;16.61;96.28;64714.66;5051784;28;20239;-59
2023/05/25 00:27:13;;;;;;;15.52;11.70;;;;;;;16.48;98.08;64698.31;5052220;28;20648;-60
2023/05/25 00:29:38;;;;;;;16.27;11.05;;;;;;;16.64;97.80;64715.97;5052863;28;20204;-60
2023/05/25 00:32:04;;;;;;;18.60;15.38;;;;;;;16.72;96.86;64724.78;5052808;28;20182;-57
2023/05/25 00:34:30;;;;;;;15.13;12.65;;;;;;;16.96;94.79;64750.66;5052963;28;20218;-58
2023/05/25 00:36:55;;;;;;;17.42;14.43;;;;;;;16.93;94.67;64746.81;5052488;28;20285;-58
2023/05/25 00:39:21;;;;;;;22.58;17.92;;;;;;;16.64;95.72;64715.97;5052043;28;20424;-58
2023/05/25 00:41:48;;;;;;;19.15;15.73;;;;;;;16.52;98.12;64702.22;5052612;28;20634;-59
2023/05/25 00:44:14;;;;;;;21.30;17.83;;;;;;;16.46;98.21;64695.59;5052607;28;20699;-59
2023/05/25 00:46:51;;;;;;;27.83;22.30;;;;;;;16.34;98.83;64685.47;5052494;28;20220;-59
2023/05/25 00:49:18;;;;;;;29.65;23.23;;;;;;;16.30;99.25;64681.06;5052670;28;20221;-58
2023/05/25 00:51:47;;;;;;;29.60;20.05;;;;;;;16.30;98.49;64677.97;5052504;28;20189;-60
2023/05/25 00:54:16;;;;;;;29.02;22.38;;;;;;;16.09;99.59;64655.41;5034462;28;20213;-59
2023/05/25 00:56:56;;;;;;;31.13;23.45;;;;;;;16.02;100.00;64649.72;5052658;28;20196;-59
2023/05/25 00:59:30;;;;;;;27.58;20.30;;;;;;;16.11;100.00;64657.63;5052524;28;20221;-59
2023/05/25 01:01:58;;;;;;;23.30;18.75;;;;;;;16.20;99.11;64669.50;5051922;28;20294;-58
2023/05/25 01:04:27;;;;;;;20.02;14.23;;;;;;;16.17;98.96;64664.22;5052392;28;20216;-58
2023/05/25 01:06:56;;;;;;;17.92;15.63;;;;;;;16.24;99.92;64671.38;5051180;28;20188;-59
2023/05/25 01:09:25;;;;;;;14.00;11.60;;;;;;;16.34;98.01;64685.47;5052622;28;20221;-59
2023/05/25 01:11:52;;;;;;;8.57;7.43;;;;;;;16.33;96.29;64681.28;5052035;28;20181;-57
2023/05/25 01:14:20;;;;;;;10.95;7.93;;;;;;;16.30;96.61;64677.97;5051742;28;20753;-59
2023/05/25 01:16:47;;;;;;;8.52;7.45;;;;;;;16.28;96.85;64675.78;5050653;28;20634;-59
2023/05/25 01:19:13;;;;;;;10.88;7.45;;;;;;;16.23;98.35;64670.81;5050592;28;20205;-58
2023/05/25 01:22:04;;;;;;;8.57;5.22;;;;;;;16.20;96.07;64667.50;5050968;28;20587;-58
2023/05/25 01:24:48;;;;;;;6.97;5.78;;;;;;;16.26;96.19;64676.13;5051958;28;20699;-60
2023/05/25 01:27:23;;;;;;;7.32;5.60;;;;;;;16.20;95.76;64664.44;5050623;28;20201;-60
2023/05/25 01:29:48;;;;;;;5.30;4.75;;;;;;;15.91;96.51;64641.25;5051816;28;20247;-58
2023/05/25 01:32:16;;;;;;;5.93;4.97;;;;;;;15.64;98.25;64608.44;5051542;28;20225;-59
2023/05/25 01:34:43;;;;;;;7.00;5.43;;;;;;;15.60;98.93;64598.94;5051732;28;20214;-57
2023/05/25 01:37:08;;;;;;;6.53;5.53;;;;;;;15.78;98.29;64621.84;5051436;28;20181;-59
2023/05/25 01:39:34;;;;;;;9.00;5.65;;;;;;;15.93;97.23;64635.25;5052003;28;20205;-59
2023/05/25 01:42:00;;;;;;;8.15;5.95;;;;;;;15.90;97.45;64634.50;5051523;28;20217;-58
2023/05/25 01:44:27;;;;;;;6.72;5.65;;;;;;;15.83;97.81;64626.81;5051436;28;20221;-59
2023/05/25 01:47:02;;;;;;;7.80;6.22;;;;;;;15.81;98.76;64625.16;5051304;28;20247;-60
2023/05/25 01:49:36;;;;;;;8.57;7.03;;;;;;;15.83;98.82;64626.81;5051763;28;20700;-60
2023/05/25 01:52:27;;;;;;;9.27;6.70;;;;;;;15.82;99.07;64628.22;5051529;28;20193;-58
2023/05/25 01:54:59;;;;;;;9.02;6.70;;;;;;;15.83;99.61;64626.81;5051450;28;20217;-58
2023/05/25 01:57:27;;;;;;;11.73;7.15;;;;;;;16.02;97.87;64647.16;5051215;28;20189;-59
2023/05/25 01:59:56;;;;;;;9.77;6.57;;;;;;;15.92;98.54;64637.25;5051446;28;20205;-60
2023/05/25 02:02:22;;;;;;;10.93;6.63;;;;;;;15.89;99.41;64633.41;5051483;28;20185;-60
2023/05/25 02:04:48;;;;;;;8.45;6.50;;;;;;;15.98;99.72;64645.84;5051292;28;20587;-58
2023/05/25 02:07:14;;;;;;;8.35;5.85;;;;;;;16.19;99.29;64666.41;5050379;28;20181;-58
2023/05/25 02:09:39;;;;;;;6.97;6.00;;;;;;;16.00;100.00;64645.50;5050662;28;20201;-58
2023/05/25 02:12:05;;;;;;;19.45;15.18;;;;;;;15.92;98.55;64636.69;5051299;28;20181;-58
2023/05/25 02:14:30;;;;;;;27.15;19.95;;;;;;;15.89;97.61;64635.94;5051162;28;20663;-57
2023/05/25 02:16:56;;;;;;;29.50;23.55;;;;;;;15.63;98.44;64605.34;5050990;28;20269;-57
2023/05/25 02:19:22;;;;;;;36.50;29.60;;;;;;;15.66;97.51;64611.19;5051061;28;20707;-57
2023/05/25 02:21:48;;;;;;;54.55;43.38;;;;;;;15.63;97.67;64607.34;5050973;28;20670;-55
2023/05/25 02:24:13;;;;;;;76.32;53.05;;;;;;;15.55;97.65;64598.53;5051443;28;20205;-57
2023/05/25 02:26:39;;;;;;;76.50;54.60;;;;;;;15.53;96.20;64591.81;5051365;28;20189;-57
2023/05/25 02:29:05;;;;;;;53.28;41.63;;;;;;;15.36;96.29;64577.63;5051090;28;20202;-56
2023/05/25 02:31:31;;;;;;;39.10;28.95;;;;;;;15.30;95.07;64571.00;5050878;28;20204;-56
2023/05/25 02:33:57;;;;;;;52.65;37.40;;;;;;;15.33;96.16;64574.84;5050876;28;20308;-57
2023/05/25 02:36:23;;;;;;;26.70;18.45;;;;;;;15.27;95.01;64568.25;5050906;28;20304;-56
2023/05/25 02:38:50;;;;;;;18.38;14.00;;;;;;;15.14;95.66;64551.44;5050574;28;20209;-57
2023/05/25 02:41:18;;;;;;;9.60;6.72;;;;;;;15.15;94.78;64552.53;5050733;28;20240;-57
2023/05/25 02:43:43;;;;;;;12.82;9.73;;;;;;;15.22;94.99;64560.22;5050606;28;20237;-56
2023/05/25 02:46:08;;;;;;;7.43;5.28;;;;;;;15.15;94.69;64555.06;5050572;28;20216;-59
2023/05/25 02:48:34;;;;;;;7.82;5.70;;;;;;;15.24;94.67;64561.88;5050631;28;20716;-60
2023/05/25 02:51:01;;;;;;;6.03;5.20;;;;;;;15.24;95.23;64564.41;5050407;28;20185;-60
2023/05/25 02:53:27;;;;;;;6.90;4.72;;;;;;;15.27;93.38;64568.25;5050869;28;20568;-55
2023/05/25 02:55:52;;;;;;;7.00;3.97;;;;;;;15.18;94.16;64558.38;5050505;28;20197;-56
2023/05/25 02:58:18;;;;;;;8.45;4.63;;;;;;;15.14;93.47;64554.53;5050578;28;20651;-57
2023/05/25 03:00:43;;;;;;;4.55;3.65;;;;;;;14.88;94.70;64525.94;5050430;28;20209;-56
2023/05/25 03:03:08;;;;;;;5.70;4.40;;;;;;;14.98;93.96;64539.47;5049067;28;20687;-58
2023/05/25 03:05:34;;;;;;;4.97;3.95;;;;;;;15.07;93.61;64543.72;5048630;28;20221;-57
2023/05/25 03:08:00;;;;;;;7.40;3.83;;;;;;;15.05;93.60;64541.53;5050505;28;20260;-57
2023/05/25 03:10:25;;;;;;;5.88;4.25;;;;;;;15.15;93.66;64553.06;5050310;28;20678;-58
2023/05/25 03:12:51;;;;;;;6.20;4.38;;;;;;;15.06;93.93;64547.72;5050342;28;20584;-56
2023/05/25 03:15:16;;;;;;;3.88;3.58;;;;;;;14.91;94.66;64528.69;5050342;28;20651;-58
2023/05/25 03:17:42;;;;;;;5.50;4.20;;;;;;;14.90;95.09;64530.69;5050217;28;20707;-57
2023/05/25 03:20:09;;;;;;;9.30;3.95;;;;;;;14.92;94.72;64530.34;5050171;28;20216;-58
2023/05/25 03:22:35;;;;;;;4.82;4.15;;;;;;;14.85;94.68;64522.06;5050053;28;20697;-58
2023/05/25 03:25:00;;;;;;;4.60;3.85;;;;;;;14.77;95.55;64511.31;5049981;28;20213;-60
2023/05/25 03:27:26;;;;;;;4.97;4.20;;;;;;;14.75;95.10;64511.66;5049330;28;20212;-58
2023/05/25 03:29:58;;;;;;;4.68;4.07;;;;;;;14.65;95.72;64498.13;5052739;28;20690;-58
2023/05/25 03:32:23;;;;;;;5.60;4.28;;;;;;;14.62;96.54;64494.84;5053771;28;20253;-58
2023/05/25 03:34:49;;;;;;;6.13;3.78;;;;;;;14.53;97.43;64484.94;5053524;28;20219;-58
2023/05/25 03:37:14;;;;;;;5.82;4.25;;;;;;;14.69;96.78;64505.06;5053574;28;20185;-58
2023/05/25 03:39:40;;;;;;;5.88;4.32;;;;;;;14.73;96.58;64506.34;5053421;28;20556;-58
2023/05/25 03:42:06;;;;;;;7.40;4.20;;;;;;;14.80;96.71;64517.16;5053329;28;20251;-58
2023/05/25 03:44:31;;;;;;;5.00;3.92;;;;;;;14.75;97.55;64506.56;5053554;28;20288;-58
2023/05/25 03:46:57;;;;;;;7.53;4.05;;;;;;;14.81;97.87;64518.25;5053488;28;20235;-58
2023/05/25 03:49:23;;;;;;;6.63;4.78;;;;;;;14.87;97.54;64521.75;5053397;28;20209;-60
2023/05/25 03:51:48;;;;;;;5.60;4.40;;;;;;;14.95;97.41;64530.53;5053635;28;20197;-58
2023/05/25 03:54:13;;;;;;;9.23;4.68;;;;;;;14.97;97.63;64535.81;5053618;28;20740;-58
2023/05/25 03:56:39;;;;;;;5.95;4.28;;;;;;;15.09;100.00;64545.94;5053264;28;20182;-57
2023/05/25 03:59:05;;;;;;;11.13;6.25;;;;;;;15.21;95.86;64561.13;5052976;28;20213;-56
2023/05/25 04:01:30;;;;;;;6.38;4.90;;;;;;;15.21;100.00;64561.13;5053116;28;20309;-57
2023/05/25 04:03:56;;;;;;;7.32;4.95;;;;;;;15.58;100.00;64601.81;5053226;28;20213;-58
2023/05/25 04:06:24;;;;;;;8.48;4.82;;;;;;;15.86;100.00;64630.66;5052846;28;20193;-59
2023/05/25 04:08:50;;;;;;;6.80;4.90;;;;;;;15.79;96.69;64625.50;5053064;28;20211;-59
2023/05/25 04:11:17;;;;;;;8.13;5.55;;;;;;;15.55;97.78;64598.53;5052875;28;20192;-58
2023/05/25 04:13:43;;;;;;;7.70;5.43;;;;;;;15.39;98.12;64578.91;5052739;28;20309;-58
2023/05/25 04:16:09;;;;;;;7.45;4.68;;;;;;;15.51;97.88;64594.13;5051530;28;20189;-57
2023/05/25 04:18:53;;;;;;;8.10;4.63;;;;;;;15.51;96.41;64592.16;5052971;28;20213;-58
2023/05/25 04:21:18;;;;;;;10.10;5.22;;;;;;;15.49;96.58;64591.94;5052777;28;20236;-57
2023/05/25 04:23:43;;;;;;;8.93;5.30;;;;;;;15.44;97.34;64586.44;5053128;28;20220;-57
2023/05/25 04:26:09;;;;;;;9.05;4.40;;;;;;;15.30;98.05;64571.56;5052987;28;20228;-58
2023/05/25 04:28:39;;;;;;;7.85;5.30;;;;;;;15.47;97.21;64590.28;5052867;28;20649;-57
2023/05/25 04:31:05;;;;;;;6.30;4.65;;;;;;;15.48;97.38;64590.84;5052921;28;20189;-58
2023/05/25 04:33:33;;;;;;;6.88;4.68;;;;;;;15.26;98.65;64564.06;5052480;28;20213;-57
2023/05/25 04:35:59;;;;;;;8.48;4.85;;;;;;;15.47;98.74;64587.19;5052534;28;20242;-59
2023/05/25 04:38:25;;;;;;;10.30;4.90;;;;;;;15.53;98.79;64593.81;5052602;28;20286;-58
2023/05/25 04:40:53;;;;;;;9.07;5.05;;;;;;;15.46;99.90;64586.09;5052050;28;20213;-58
2023/05/25 04:43:19;;;;;;;8.02;4.88;;;;;;;15.64;99.58;64606.44;5052095;28;20209;-57
2023/05/25 04:45:45;;;;;;;5.78;4.75;;;;;;;15.72;98.58;64617.22;5034498;28;20190;-59
2023/05/25 04:48:11;;;;;;;5.97;4.97;;;;;;;15.71;99.32;64616.69;5052377;28;20210;-57
2023/05/25 04:50:39;;;;;;;7.38;5.13;;;;;;;15.89;98.97;64633.97;5052324;28;20330;-59
2023/05/25 04:53:05;;;;;;;8.68;5.05;;;;;;;15.94;98.47;64639.44;5052407;28;20216;-56
2023/05/25 04:55:30;;;;;;;7.97;5.50;;;;;;;15.96;97.65;64644.19;5052564;28;20194;-58
2023/05/25 04:57:56;;;;;;;12.05;4.95;;;;;;;15.98;98.14;64646.41;5052286;28;20564;-57
2023/05/25 05:00:21;;;;;;;9.57;5.80;;;;;;;15.99;96.86;64646.94;5034247;28;20681;-59
2023/05/25 05:02:47;;;;;;;9.43;5.15;;;;;;;15.95;97.51;64637.47;5033965;28;20244;-57
2023/05/25 05:05:13;;;;;;;8.63;4.97;;;;;;;16.04;97.72;64651.91;5034043;28;20232;-59
2023/05/25 05:07:38;;;;;;;10.43;6.18;;;;;;;16.27;96.79;64672.69;5052136;28;20225;-59
2023/05/25 05:10:05;;;;;;;9.35;4.97;;;;;;;16.40;94.20;64689.53;5052041;28;20223;-59
2023/05/25 05:12:32;;;;;;;7.60;4.78;;;;;;;16.37;92.13;64683.13;5051924;28;20198;-57
2023/05/25 05:14:57;;;;;;;6.22;4.97;;;;;;;16.36;93.03;64684.59;5052011;28;20292;-57
2023/05/25 05:17:25;;;;;;;7.38;5.13;;;;;;;16.41;93.31;64690.63;5051972;28;20284;-58
2023/05/25 05:19:50;;;;;;;7.53;5.97;;;;;;;16.58;100.00;64708.81;5052087;28;20263;-59
2023/05/25 05:22:15;;;;;;;7.82;5.55;;;;;;;16.85;93.94;64741.09;5051865;28;20580;-57
2023/05/25 05:24:41;;;;;;;9.40;5.00;;;;;;;16.89;94.07;64742.41;5052022;28;20209;-58
2023/05/25 05:27:07;;;;;;;8.57;5.93;;;;;;;16.88;94.79;64744.41;5033904;28;20193;-58
2023/05/25 05:29:33;;;;;;;7.47;6.32;;;;;;;16.70;95.49;64722.56;5051913;28;20300;-59
2023/05/25 05:31:59;;;;;;;10.70;5.78;;;;;;;17.08;93.97;64760.78;5049521;28;20254;-59
2023/05/25 05:34:25;;;;;;;7.47;5.60;;;;;;;17.24;92.86;64778.97;5051582;28;20759;-57
2023/05/25 05:36:50;;;;;;;6.90;5.63;;;;;;;17.11;95.31;64769.19;5049785;28;20192;-58
2023/05/25 05:39:16;;;;;;;8.85;6.18;;;;;;;16.86;97.77;64744.75;5050599;28;20216;-58
2023/05/25 05:41:44;;;;;;;11.60;6.40;;;;;;;16.95;97.18;64751.56;5051606;28;20267;-59
2023/05/25 05:44:11;;;;;;;10.05;6.30;;;;;;;17.04;97.11;64761.47;5051501;28;20244;-59
2023/05/25 05:46:37;;;;;;;11.95;6.97;;;;;;;16.96;97.43;64750.66;5050162;28;20260;-59
2023/05/25 05:49:02;;;;;;;11.43;6.80;;;;;;;17.14;96.95;64770.50;5050340;28;20221;-60
2023/05/25 05:51:28;;;;;;;13.25;6.95;;;;;;;17.21;98.22;64778.19;5050870;28;20264;-58
2023/05/25 05:53:53;;;;;;;11.60;6.90;;;;;;;17.08;99.02;64761.34;5051180;28;20204;-58
2023/05/25 05:56:19;;;;;;;25.20;15.85;;;;;;;17.00;99.11;64757.06;5051379;28;20643;-59
2023/05/25 05:58:47;;;;;;;14.23;10.20;;;;;;;17.27;99.27;64784.28;5051429;28;20715;-58
2023/05/25 06:01:13;;;;;;;16.92;7.63;;;;;;;17.22;98.90;64776.22;5051022;28;20249;-57
2023/05/25 06:03:38;;;;;;;11.90;7.68;;;;;;;17.34;99.01;64794.53;5051315;28;20248;-60
2023/05/25 06:06:04;;;;;;;10.02;7.65;;;;;;;17.56;98.02;64816.25;5051270;28;20178;-59
2023/05/25 06:08:29;;;;;;;13.40;7.97;;;;;;;17.72;98.79;64833.31;5051291;28;20304;-61
2023/05/25 06:10:55;;;;;;;12.27;7.95;;;;;;;17.77;98.82;64839.41;5051033;28;20228;-59
2023/05/25 06:13:20;;;;;;;13.88;8.35;;;;;;;17.96;93.68;64862.31;5051352;28;20222;-60
2023/05/25 06:15:46;;;;;;;11.98;8.05;;;;;;;17.90;94.69;64853.72;5051043;28;20228;-60
2023/05/25 06:18:11;;;;;;;14.18;9.10;;;;;;;17.88;94.78;64851.50;5051237;28;20223;-61
2023/05/25 06:20:37;;;;;;;13.35;8.40;;;;;;;17.70;96.07;64831.66;5051030;28;20209;-61
2023/05/25 06:23:02;;;;;;;16.73;9.02;;;;;;;17.73;97.46;64835.00;5051107;28;20197;-61
2023/05/25 06:25:28;;;;;;;14.50;10.10;;;;;;;17.62;95.49;64825.41;5050958;28;20212;-61
2023/05/25 06:27:53;;;;;;;14.63;10.43;;;;;;;17.50;95.62;64809.63;5050719;28;20371;-57
2023/05/25 06:30:19;;;;;;;19.13;10.38;;;;;;;17.56;94.27;64816.78;5051092;28;20182;-57
2023/05/25 06:32:44;;;;;;;11.88;9.45;;;;;;;17.71;93.56;64832.22;5051104;28;20287;-57
2023/05/25 06:35:16;;;;;;;14.13;9.68;;;;;;;17.94;91.68;64857.56;5050882;28;20769;-58
2023/05/25 06:37:41;;;;;;;16.70;9.93;;;;;;;17.89;94.40;64849.53;5051115;28;20189;-57
2023/05/25 06:40:10;;;;;;;18.05;10.98;;;;;;;17.81;93.05;64843.25;5050804;28;20227;-57
2023/05/25 06:42:36;;;;;;;18.10;11.70;;;;;;;18.03;92.32;64870.06;5050781;28;20204;-58
2023/05/25 06:45:03;;;;;;;19.10;12.23;;;;;;;18.06;92.86;64871.34;5050896;28;20209;-60
2023/05/25 06:47:28;;;;;;;14.73;10.73;;;;;;;18.08;92.27;64873.56;5050523;28;20196;-61
2023/05/25 06:49:53;;;;;;;18.73;10.82;;;;;;;18.12;91.83;64877.97;5050742;28;20209;-61
2023/05/25 06:52:19;;;;;;;16.15;10.90;;;;;;;18.49;89.73;64915.69;5050747;28;20702;-61
2023/05/25 06:54:44;;;;;;;15.65;10.95;;;;;;;18.40;92.07;64908.84;5050727;28;20293;-59
2023/05/25 06:57:10;;;;;;;16.33;11.68;;;;;;;18.27;94.53;64893.97;5050516;28;20529;-60
2023/05/25 06:59:35;;;;;;;16.85;11.48;;;;;;;18.47;92.81;64913.50;5050803;28;20214;-61
2023/05/25 07:02:01;;;;;;;16.13;11.82;;;;;;;18.36;92.03;64903.91;5050208;28;20218;-59
2023/05/25 07:04:27;;;;;;;15.25;11.32;;;;;;;18.43;92.91;64909.09;5050589;28;20244;-60
2023/05/25 07:06:52;;;;;;;15.05;11.32;;;;;;;18.48;92.63;64914.59;5050194;28;20660;-60
2023/05/25 07:09:18;;;;;;;15.80;11.25;;;;;;;18.60;90.48;64927.28;5050323;28;20209;-57
2023/05/25 07:11:44;;;;;;;14.60;10.23;;;;;;;18.65;90.66;64935.91;5050554;28;20200;-59
2023/05/25 07:14:09;;;;;;;18.88;10.23;;;;;;;18.72;91.78;64945.63;5050144;28;20753;-58
2023/05/25 07:16:35;;;;;;;22.85;11.02;;;;;;;18.94;91.33;64967.91;5050292;28;20197;-60
2023/05/25 07:19:00;;;;;;;15.15;10.13;;;;;;;18.99;91.62;64975.41;5050767;28;20205;-59
2023/05/25 07:21:26;;;;;;;13.93;9.95;;;;;;;19.14;90.09;64991.97;5050097;28;20662;-59
2023/05/25 07:23:52;;;;;;;15.32;10.02;;;;;;;19.18;89.35;64994.41;5050284;28;20210;-58
2023/05/25 07:26:20;;;;;;;19.52;12.35;;;;;;;19.17;90.47;64990.16;5050100;28;20200;-57
2023/05/25 07:28:45;;;;;;;16.65;10.63;;;;;;;19.27;90.69;65004.31;5050220;28;20213;-58
2023/05/25 07:31:11;;;;;;;15.73;9.75;;;;;;;19.44;86.54;65020.00;5050210;28;20185;-58
2023/05/25 07:33:36;;;;;;;13.60;9.88;;;;;;;19.54;87.95;65031.03;5049934;28;20216;-58
2023/05/25 07:36:01;;;;;;;14.02;9.43;;;;;;;19.56;89.11;65033.25;5050055;28;20193;-58
2023/05/25 07:38:27;;;;;;;18.80;10.52;;;;;;;19.55;89.55;65034.16;5050136;28;20725;-59
2023/05/25 07:40:53;;;;;;;20.98;9.50;;;;;;;19.40;90.33;65015.03;5049793;28;20224;-59
2023/05/25 07:43:18;;;;;;;15.57;9.32;;;;;;;19.29;91.32;65006.53;5048666;28;20675;-59
2023/05/25 07:45:44;;;;;;;17.92;9.98;;;;;;;19.58;89.55;65035.47;5049856;28;20190;-59
2023/05/25 07:48:09;;;;;;;17.77;8.80;;;;;;;19.46;91.25;65022.22;5049676;28;20218;-58
2023/05/25 07:50:35;;;;;;;13.40;8.43;;;;;;;19.59;91.71;65036.03;5049825;28;20193;-59
2023/05/25 07:53:00;;;;;;;17.17;10.68;;;;;;;19.39;92.07;65013.94;5049463;28;20189;-58
2023/05/25 07:55:26;;;;;;;13.60;8.65;;;;;;;19.52;91.27;65028.84;5049731;28;20184;-60
2023/05/25 07:57:52;;;;;;;17.75;9.75;;;;;;;19.64;90.20;65044.66;5049852;28;20201;-58
2023/05/25 08:00:18;;;;;;;13.65;9.27;;;;;;;19.55;90.70;65031.59;5049635;28;20699;-57
2023/05/25 08:02:43;;;;;;;17.33;9.45;;;;;;;19.46;91.35;65024.22;5031706;28;20200;-58
2023/05/25 08:05:09;;;;;;;16.20;9.32;;;;;;;19.35;93.65;65012.06;5049443;28;20205;-58
2023/05/25 08:07:35;;;;;;;19.27;10.77;;;;;;;19.45;92.57;65021.13;5049599;28;20197;-59
2023/05/25 08:10:01;;;;;;;21.30;10.18;;;;;;;19.21;93.99;64997.13;5049472;28;20213;-56
2023/05/25 08:12:28;;;;;;;19.15;10.32;;;;;;;19.22;93.73;64998.81;5049441;28;20186;-57
2023/05/25 08:14:54;;;;;;;11.85;8.63;;;;;;;18.88;97.28;64963.84;5050518;28;20521;-61
2023/05/25 08:17:20;;;;;;;20.40;8.90;;;;;;;18.93;96.57;64963.69;5052880;28;20201;-60
2023/05/25 08:19:46;;;;;;;13.15;7.78;;;;;;;18.82;97.73;64956.66;5052719;28;20213;-60
2023/05/25 08:22:11;;;;;;;18.75;8.98;;;;;;;18.68;97.50;64936.13;5052673;28;20752;-59
2023/05/25 08:24:37;;;;;;;15.13;9.32;;;;;;;18.42;98.57;64913.59;5053178;28;20288;-61
2023/05/25 08:27:02;;;;;;;13.02;8.73;;;;;;;18.15;100.00;64878.75;5052971;28;20285;-60
2023/05/25 08:29:28;;;;;;;15.05;9.98;;;;;;;18.04;100.00;64866.59;5052918;28;20300;-59
2023/05/25 08:31:53;;;;;;;12.18;8.07;;;;;;;18.15;99.25;64881.28;5052830;28;20197;-61
2023/05/25 08:34:19;;;;;;;14.88;7.90;;;;;;;18.04;99.61;64869.16;5052540;28;20739;-61
2023/05/25 08:36:44;;;;;;;12.15;8.13;;;;;;;17.97;100.00;64856.34;5052737;28;20545;-62
2023/05/25 08:39:10;;;;;;;10.55;7.45;;;;;;;18.00;99.56;64861.63;5052414;28;20297;-59
2023/05/25 08:41:40;;;;;;;12.13;7.35;;;;;;;17.83;100.00;64843.47;5052465;28;20296;-61
2023/05/25 08:44:07;;;;;;;10.55;7.20;;;;;;;17.63;100.00;64821.94;5052680;28;20210;-60
2023/05/25 08:46:33;;;;;;;8.27;5.97;;;;;;;17.78;100.00;64837.94;5052330;28;20199;-60
2023/05/25 08:49:07;;;;;;;8.60;5.95;;;;;;;17.74;100.00;64832.97;5052278;28;20209;-60
2023/05/25 08:51:36;;;;;;;11.98;6.60;;;;;;;17.77;100.00;64838.84;5052370;28;20197;-60
2023/05/25 08:54:11;;;;;;;10.27;6.22;;;;;;;17.61;100.00;64824.84;5052285;28;20296;-62
2023/05/25 08:57:15;;;;;;;8.18;6.20;;;;;;;17.78;100.00;64837.94;5052027;28;20193;-60
2023/05/25 08:59:46;;;;;;;7.15;5.80;;;;;;;17.87;100.00;64850.41;5052158;28;20679;-62
2023/05/25 09:02:25;;;;;;;8.15;5.95;;;;;;;17.60;100.00;64818.66;5052166;28;20216;-60
2023/05/25 09:04:51;;;;;;;7.00;5.55;;;;;;;17.71;100.00;64830.22;5052235;28;20205;-60
2023/05/25 09:07:16;;;;;;;6.22;5.47;;;;;;;17.63;100.00;64824.50;5052452;28;20342;-61
2023/05/25 09:09:44;;;;;;;8.75;5.40;;;;;;;17.65;100.00;64828.72;5054437;28;20667;-62
2023/05/25 09:12:10;;;;;;;7.80;5.22;;;;;;;17.67;100.00;64825.28;5072362;28;20196;-60
2023/05/25 09:14:36;;;;;;;9.43;5.03;;;;;;;17.73;100.00;64834.44;5072028;28;20243;-60
2023/05/25 09:17:02;;;;;;;8.70;5.68;;;;;;;17.58;100.00;64819.00;5072178;28;20204;-59
2023/05/25 09:19:27;;;;;;;7.45;5.47;;;;;;;17.60;100.00;64820.66;5072343;28;20648;-60
2023/05/25 09:21:53;;;;;;;6.43;5.15;;;;;;;17.27;100.00;64784.28;5072260;28;20242;-61
2023/05/25 09:24:21;;;;;;;9.25;6.15;;;;;;;17.13;100.00;64766.84;5072051;28;20209;-61
2023/05/25 09:26:48;;;;;;;6.65;5.65;;;;;;;16.82;100.00;64732.72;5070845;28;20276;-60
2023/05/25 09:29:14;;;;;;;8.20;4.70;;;;;;;17.03;100.00;64755.28;5071777;28;20208;-60
2023/05/25 09:31:39;;;;;;;9.63;5.68;;;;;;;17.09;100.00;64764.97;5071905;28;20252;-60
2023/05/25 09:34:12;;;;;;;9.10;5.63;;;;;;;17.00;100.00;64754.53;5072099;28;20303;-59
2023/05/25 09:36:40;;;;;;;13.15;7.82;;;;;;;17.01;100.00;64753.09;5071614;28;20181;-61
2023/05/25 09:39:09;;;;;;;10.80;7.63;;;;;;;16.93;100.00;64746.81;5071151;28;20304;-61
2023/05/25 09:41:36;;;;;;;10.27;5.88;;;;;;;17.10;100.00;64763.53;5070533;28;20212;-61
2023/05/25 09:44:03;;;;;;;6.82;5.03;;;;;;;17.12;100.00;64768.28;5071932;28;20205;-60
2023/05/25 09:46:31;;;;;;;10.25;5.97;;;;;;;17.20;100.00;64774.56;5071635;28;20193;-61
2023/05/25 09:48:56;;;;;;;8.00;5.47;;;;;;;17.04;100.00;64756.94;5053458;28;20625;-60
2023/05/25 09:51:22;;;;;;;11.07;5.75;;;;;;;17.22;100.00;64778.75;5071406;28;20211;-61
2023/05/25 09:53:47;;;;;;;9.15;5.55;;;;;;;17.33;100.00;64793.97;5053584;28;20784;-59
2023/05/25 09:56:13;;;;;;;12.43;7.50;;;;;;;17.36;100.00;64796.72;5071471;28;20710;-60
2023/05/25 09:58:39;;;;;;;5.72;4.93;;;;;;;17.32;100.00;64792.31;5071751;28;20754;-59
2023/05/25 10:01:06;;;;;;;7.30;5.63;;;;;;;17.33;100.00;64790.88;5071401;28;20220;-58
2023/05/25 10:03:32;;;;;;;10.10;6.40;;;;;;;17.29;100.00;64783.94;5071057;28;20264;-59
2023/05/25 10:05:57;;;;;;;8.40;5.32;;;;;;;17.14;100.00;64767.41;5053449;28;20188;-60
2023/05/25 10:08:24;;;;;;;9.35;5.93;;;;;;;17.55;100.00;64815.16;5071441;28;20674;-59
2023/05/25 10:10:50;;;;;;;9.82;6.25;;;;;;;17.72;100.00;64831.31;5071096;28;20272;-59
2023/05/25 10:13:21;;;;;;;11.20;6.78;;;;;;;18.06;100.00;64870.81;5071004;28;20300;-59
2023/05/25 10:15:47;;;;;;;10.50;7.30;;;;;;;18.21;100.00;64887.91;5071089;28;20646;-60
2023/05/25 10:18:14;;;;;;;9.07;6.88;;;;;;;18.49;100.00;64915.16;5069537;28;20219;-60
2023/05/25 10:20:42;;;;;;;10.82;8.38;;;;;;;18.24;100.00;64888.13;5070831;28;20292;-58
2023/05/25 10:23:15;;;;;;;11.65;9.18;;;;;;;18.29;100.00;64894.19;5071143;28;20693;-58
2023/05/25 10:25:45;;;;;;;8.38;5.85;;;;;;;18.49;100.00;64915.16;5070981;28;20196;-60
2023/05/25 10:28:27;;;;;;;5.40;4.78;;;;;;;18.44;100.00;64913.28;5071103;28;20271;-59
2023/05/25 10:30:55;;;;;;;5.95;5.35;;;;;;;18.39;100.00;64905.22;5070981;28;20234;-58
2023/05/25 10:33:21;;;;;;;7.25;4.80;;;;;;;17.85;100.00;64842.56;5070943;28;20290;-57
2023/05/25 10:35:48;;;;;;;5.75;4.55;;;;;;;17.79;100.00;64841.03;5070956;28;20188;-56
2023/05/25 10:38:14;;;;;;;7.72;5.53;;;;;;;17.75;100.00;64839.19;5070677;28;20200;-58
2023/05/25 10:40:49;;;;;;;7.60;4.78;;;;;;;17.74;100.00;64832.97;5070950;28;20247;-57
2023/05/25 10:43:17;;;;;;;6.32;5.10;;;;;;;17.98;100.00;64865.09;5054382;28;20697;-57
2023/05/25 10:45:43;;;;;;;5.40;4.90;;;;;;;17.79;100.00;64838.50;5070575;28;20185;-59
2023/05/25 10:48:09;;;;;;;5.78;5.10;;;;;;;17.79;100.00;64839.06;5070940;28;20215;-58
2023/05/25 10:50:35;;;;;;;8.65;5.70;;;;;;;17.99;100.00;64863.09;5070695;28;20188;-60
2023/05/25 10:53:02;;;;;;;6.18;5.30;;;;;;;17.90;100.00;64851.16;5070541;28;20193;-60
2023/05/25 10:55:31;;;;;;;8.43;5.72;;;;;;;18.01;100.00;64865.28;5070641;28;20273;-60
2023/05/25 10:58:07;;;;;;;8.68;6.43;;;;;;;18.14;100.00;64877.63;5070584;28;20192;-59
2023/05/25 11:00:33;;;;;;;10.60;7.28;;;;;;;18.18;100.00;64881.50;5070435;28;20386;-58
2023/05/25 11:02:59;;;;;;;5.28;4.75;;;;;;;18.58;100.00;64925.09;5070407;28;20726;-58
2023/05/25 11:05:31;;;;;;;6.47;5.18;;;;;;;18.70;100.00;64943.44;5070430;28;20256;-58
2023/05/25 11:07:59;;;;;;;11.75;6.60;;;;;;;18.34;100.00;64902.22;5070378;28;20200;-58
2023/05/25 11:10:50;;;;;;;9.30;6.80;;;;;;;18.36;100.00;64907.00;5070309;28;20207;-59
2023/05/25 11:13:23;;;;;;;6.60;5.57;;;;;;;18.46;100.00;64914.41;5070616;28;20208;-60
2023/05/25 11:16:29;;;;;;;11.13;7.60;;;;;;;18.55;100.00;64924.31;5070388;28;20185;-58
2023/05/25 11:18:57;;;;;;;8.13;5.93;;;;;;;18.64;100.00;64931.69;5008328;28;20653;-58
2023/05/25 11:21:25;;;;;;;6.88;5.72;;;;;;;18.89;100.00;64962.38;5008360;28;20207;-60
2023/05/25 11:23:59;;;;;;;8.80;7.20;;;;;;;18.98;100.00;64972.31;5040007;28;20229;-57